Time;durP1;ratioP1;P1;durP2;ratioP2;P2;SDS_P1;SDS_P2;PMS_P1;PMS_P2;Temp;Humidity;BMP_temperature;BMP_pressure;BME280_temperature;BME280_humidity;BME280_pressure;Samples;Min_cycle;Max_cycle;Signal;HPM_P1;HPM_P2
2021/09/28 00:01:32;;;;;;;7.53;5.17;;;8.00;99.90;;;;;;4864682;29;20238;-92
2021/09/28 00:03:58;;;;;;;9.33;4.80;;;8.00;99.90;;;;;;4881372;29;20217;-94
2021/09/28 00:06:24;;;;;;;9.90;4.70;;;8.10;99.90;;;;;;4849341;29;20221;-92
2021/09/28 00:08:49;;;;;;;8.27;4.37;;;8.10;99.90;;;;;;4849518;29;20246;-93
2021/09/28 00:11:15;;;;;;;6.10;4.17;;;8.10;99.90;;;;;;4849517;29;20186;-93
2021/09/28 00:13:41;;;;;;;7.07;4.77;;;8.10;99.90;;;;;;4864794;29;20655;-93
2021/09/28 00:16:06;;;;;;;7.17;4.87;;;8.10;99.90;;;;;;4865180;29;20200;-93
2021/09/28 00:18:32;;;;;;;6.70;4.20;;;8.10;99.90;;;;;;4849463;29;20192;-95
2021/09/28 00:20:58;;;;;;;5.50;4.40;;;8.10;99.90;;;;;;4865084;29;20241;-93
2021/09/28 00:23:24;;;;;;;7.23;4.53;;;8.10;99.90;;;;;;4849572;29;20193;-94
2021/09/28 00:25:49;;;;;;;6.43;4.53;;;8.10;99.90;;;;;;4849321;29;20699;-93
2021/09/28 00:28:16;;;;;;;7.60;4.07;;;8.10;99.90;;;;;;4834596;29;20190;-93
2021/09/28 00:30:45;;;;;;;6.97;4.13;;;8.10;99.90;;;;;;4864528;29;20763;-93
2021/09/28 00:33:12;;;;;;;7.10;4.33;;;8.10;99.90;;;;;;4865114;29;20198;-93
2021/09/28 00:35:37;;;;;;;8.13;4.63;;;8.10;99.90;;;;;;4880918;29;20197;-93
2021/09/28 00:38:04;;;;;;;7.83;4.37;;;8.10;99.90;;;;;;4865004;29;20549;-94
2021/09/28 00:40:30;;;;;;;6.03;4.50;;;8.10;99.90;;;;;;4864782;29;20242;-92
2021/09/28 00:42:57;;;;;;;4.63;3.57;;;8.10;99.90;;;;;;4879975;29;20209;-92
2021/09/28 00:45:23;;;;;;;7.33;4.50;;;8.00;99.90;;;;;;4884386;29;20259;-92
2021/09/28 00:47:49;;;;;;;6.73;4.47;;;8.00;99.90;;;;;;4850362;29;20190;-92
2021/09/28 00:50:15;;;;;;;7.23;4.57;;;8.00;99.90;;;;;;4880722;29;20186;-94
2021/09/28 00:52:41;;;;;;;6.97;4.40;;;8.00;99.90;;;;;;4848948;29;20745;-94
2021/09/28 00:55:07;;;;;;;7.97;4.43;;;7.90;99.90;;;;;;4864694;29;20241;-94
2021/09/28 00:57:35;;;;;;;6.30;4.20;;;7.90;99.90;;;;;;4864536;29;20223;-95
2021/09/28 01:00:03;;;;;;;5.83;4.43;;;7.90;99.90;;;;;;4881070;29;20246;-95
2021/09/28 01:02:30;;;;;;;6.70;4.27;;;7.90;99.90;;;;;;4880965;29;20174;-94
2021/09/28 01:04:55;;;;;;;6.33;4.30;;;7.80;99.90;;;;;;4850198;29;20217;-94
2021/09/28 01:07:21;;;;;;;6.37;4.40;;;7.80;99.90;;;;;;4849452;29;20234;-93
2021/09/28 01:09:47;;;;;;;9.03;4.73;;;7.80;99.90;;;;;;4864508;29;20175;-93
2021/09/28 01:12:13;;;;;;;9.30;4.20;;;7.80;99.90;;;;;;4849334;29;20197;-93
2021/09/28 01:14:38;;;;;;;7.87;4.20;;;7.80;99.90;;;;;;4864540;29;20699;-93
2021/09/28 01:17:12;;;;;;;5.77;4.83;;;7.80;99.90;;;;;;4849691;29;20186;-93
2021/09/28 01:19:38;;;;;;;5.23;4.27;;;7.80;99.90;;;;;;4880713;29;20186;-94
2021/09/28 01:22:06;;;;;;;6.30;4.33;;;7.70;99.90;;;;;;4848526;29;20190;-92
2021/09/28 01:24:32;;;;;;;6.30;4.20;;;7.70;99.90;;;;;;4863635;29;20229;-94
2021/09/28 01:26:57;;;;;;;6.90;4.43;;;7.70;99.90;;;;;;4848849;29;20194;-94
2021/09/28 01:29:23;;;;;;;5.70;4.00;;;7.60;99.90;;;;;;4864067;29;20194;-94
2021/09/28 01:31:49;;;;;;;9.67;4.50;;;7.90;99.90;;;;;;4864008;29;21067;-94
2021/09/28 01:34:16;;;;;;;5.87;4.30;;;7.60;99.90;;;;;;4880520;29;20190;-94
2021/09/28 01:36:42;;;;;;;5.03;4.20;;;7.60;99.90;;;;;;4848647;29;20178;-93
2021/09/28 01:39:08;;;;;;;7.33;4.13;;;7.60;99.90;;;;;;4880174;29;20198;-93
2021/09/28 01:41:34;;;;;;;8.07;4.40;;;7.60;99.90;;;;;;4880106;29;20192;-94
2021/09/28 01:44:09;;;;;;;6.10;4.40;;;7.60;99.90;;;;;;4863999;29;20189;-94
2021/09/28 01:46:37;;;;;;;8.97;4.03;;;7.50;99.90;;;;;;4880098;29;20189;-92
2021/09/28 01:49:03;;;;;;;7.30;4.03;;;7.50;99.90;;;;;;4863699;29;20185;-94
2021/09/28 01:51:29;;;;;;;7.27;4.23;;;7.50;99.90;;;;;;4848324;29;20197;-92
2021/09/28 01:53:54;;;;;;;6.10;4.03;;;7.50;99.90;;;;;;4832462;29;20186;-93
2021/09/28 01:56:24;;;;;;;6.77;4.63;;;7.50;99.90;;;;;;4848249;29;20188;-93
2021/09/28 01:58:50;;;;;;;7.80;4.03;;;7.50;99.90;;;;;;4848585;29;20204;-93
2021/09/28 02:01:16;;;;;;;7.10;4.03;;;7.50;99.90;;;;;;4848405;29;20655;-93
2021/09/28 02:03:41;;;;;;;4.70;4.30;;;7.40;99.90;;;;;;4883944;29;20215;-93
2021/09/28 02:06:07;;;;;;;7.03;4.30;;;7.40;99.90;;;;;;4835879;29;20277;-92
2021/09/28 02:08:32;;;;;;;6.63;4.13;;;7.40;99.90;;;;;;4847641;29;20249;-90
2021/09/28 02:10:58;;;;;;;6.60;4.07;;;7.40;99.90;;;;;;4863413;29;20284;-93
2021/09/28 02:13:24;;;;;;;5.30;4.20;;;7.40;99.90;;;;;;4880020;29;20588;-92
2021/09/28 02:15:50;;;;;;;5.53;4.10;;;7.40;99.90;;;;;;4832667;29;20716;-94
2021/09/28 02:18:15;;;;;;;4.70;3.63;;;7.40;99.90;;;;;;4863745;29;20185;-92
2021/09/28 02:20:41;;;;;;;4.80;3.80;;;7.40;99.90;;;;;;4879614;29;20224;-94
2021/09/28 02:23:07;;;;;;;4.30;3.60;;;7.40;99.90;;;;;;4863351;29;20659;-93
2021/09/28 02:25:33;;;;;;;8.00;4.50;;;7.30;99.90;;;;;;4879832;29;20301;-93
2021/09/28 02:27:59;;;;;;;7.93;4.60;;;7.20;99.90;;;;;;4862996;29;20695;-93
2021/09/28 02:30:24;;;;;;;8.43;5.17;;;7.20;99.90;;;;;;4863595;29;20217;-93
2021/09/28 02:32:50;;;;;;;6.97;4.87;;;7.10;99.90;;;;;;4847770;29;20190;-93
2021/09/28 02:35:16;;;;;;;7.80;4.73;;;7.10;99.90;;;;;;4866950;29;20198;-93
2021/09/28 02:37:41;;;;;;;7.43;5.13;;;7.00;99.90;;;;;;4835518;29;20193;-95
2021/09/28 02:40:08;;;;;;;5.97;4.77;;;7.00;99.90;;;;;;4866908;29;20620;-94
2021/09/28 02:42:35;;;;;;;7.17;5.20;;;7.00;99.90;;;;;;4851676;29;20186;-93
2021/09/28 02:45:02;;;;;;;6.73;5.00;;;7.00;99.90;;;;;;4851039;29;20213;-93
2021/09/28 02:47:28;;;;;;;10.07;6.03;;;6.90;99.90;;;;;;4867199;29;20186;-93
2021/09/28 02:49:53;;;;;;;9.00;5.43;;;6.90;99.90;;;;;;4850984;29;20274;-93
2021/09/28 02:52:19;;;;;;;7.57;5.73;;;6.80;99.90;;;;;;4835842;29;20215;-92
2021/09/28 02:54:45;;;;;;;9.33;5.53;;;6.80;99.90;;;;;;4851399;29;20662;-94
2021/09/28 02:57:10;;;;;;;10.37;6.50;;;6.80;99.90;;;;;;4867478;29;20212;-93
2021/09/28 02:59:37;;;;;;;10.93;5.97;;;6.80;99.90;;;;;;4884494;29;20624;-92
2021/09/28 03:02:03;;;;;;;12.73;6.50;;;6.70;99.90;;;;;;4885323;29;20293;-92
2021/09/28 03:04:29;;;;;;;10.47;6.67;;;6.70;99.90;;;;;;4869843;29;20636;-93
2021/09/28 03:06:54;;;;;;;9.03;6.73;;;6.70;99.90;;;;;;4851457;29;20237;-91
2021/09/28 03:09:20;;;;;;;10.13;6.97;;;6.70;99.90;;;;;;4865956;29;20316;-91
2021/09/28 03:11:46;;;;;;;10.23;6.83;;;6.70;99.90;;;;;;4866031;29;20270;-92
2021/09/28 03:14:12;;;;;;;10.63;7.67;;;;;;;;;;4835672;29;20255;-93
2021/09/28 03:16:37;;;;;;;11.37;7.80;;;6.60;99.90;;;;;;4882927;29;20182;-92
2021/09/28 03:19:03;;;;;;;12.57;8.50;;;7.00;99.90;;;;;;4835842;29;20192;-90
2021/09/28 03:21:29;;;;;;;9.90;7.70;;;6.60;99.90;;;;;;4867115;29;20190;-94
2021/09/28 03:23:55;;;;;;;16.07;8.13;;;6.60;99.90;;;;;;4868275;29;20201;-90
2021/09/28 03:26:21;;;;;;;12.50;9.40;;;;;;;;;;4879842;29;20205;-93
2021/09/28 03:28:47;;;;;;;14.23;8.87;;;6.60;99.90;;;;;;4889073;29;20198;-92
2021/09/28 03:31:13;;;;;;;13.27;9.10;;;6.50;99.90;;;;;;4905771;29;20181;-93
2021/09/28 03:33:39;;;;;;;13.57;9.30;;;6.50;99.90;;;;;;4889668;29;20170;-92
2021/09/28 03:36:05;;;;;;;12.83;8.63;;;6.50;99.90;;;;;;4874023;29;20162;-92
2021/09/28 03:38:31;;;;;;;12.40;9.00;;;6.50;99.90;;;;;;4888977;29;20256;-92
2021/09/28 03:40:57;;;;;;;17.70;8.97;;;;;;;;;;4887702;29;20601;-91
2021/09/28 03:43:23;;;;;;;12.60;9.20;;;6.50;99.90;;;;;;4887911;29;20178;-91
2021/09/28 03:45:49;;;;;;;13.00;9.10;;;6.40;99.90;;;;;;4878979;29;20221;-93
2021/09/28 03:48:14;;;;;;;15.77;10.00;;;6.40;99.90;;;;;;4891648;29;20198;-93
2021/09/28 03:50:40;;;;;;;15.23;10.27;;;6.40;99.90;;;;;;4858041;29;20190;-92
2021/09/28 03:53:06;;;;;;;12.27;8.97;;;6.40;99.90;;;;;;4903976;29;20577;-93
2021/09/28 03:55:32;;;;;;;13.97;9.07;;;6.40;99.90;;;;;;4838730;29;20663;-95
2021/09/28 03:58:00;;;;;;;18.63;7.73;;;6.40;99.90;;;;;;4866237;29;20193;-93
2021/09/28 04:00:26;;;;;;;12.17;8.00;;;6.40;99.90;;;;;;4882955;29;20178;-94
2021/09/28 04:02:52;;;;;;;17.73;8.67;;;6.40;99.90;;;;;;4833839;29;20213;-92
2021/09/28 04:05:17;;;;;;;8.80;7.30;;;6.40;99.90;;;;;;4860944;29;20237;-93
2021/09/28 04:07:43;;;;;;;8.80;7.13;;;6.30;99.90;;;;;;4845635;29;20240;-92
2021/09/28 04:10:10;;;;;;;8.70;6.50;;;6.40;99.90;;;;;;4831577;29;20747;-92
2021/09/28 04:12:37;;;;;;;13.67;6.97;;;6.40;99.90;;;;;;4880266;29;20193;-91
2021/09/28 04:15:05;;;;;;;10.03;6.80;;;6.40;99.90;;;;;;4844682;29;20195;-93
2021/09/28 04:17:30;;;;;;;9.87;7.30;;;6.40;99.90;;;;;;4852983;29;20190;-93
2021/09/28 04:19:57;;;;;;;12.17;8.00;;;6.40;99.90;;;;;;4857910;29;20559;-92
2021/09/28 04:22:23;;;;;;;10.03;7.17;;;6.30;99.90;;;;;;4880129;29;20194;-91
2021/09/28 04:24:49;;;;;;;9.20;7.17;;;6.20;99.90;;;;;;4882241;29;20220;-92
2021/09/28 04:27:16;;;;;;;11.47;7.97;;;6.30;99.90;;;;;;4851556;29;20288;-91
2021/09/28 04:29:42;;;;;;;8.83;6.97;;;6.20;99.90;;;;;;4879879;29;20186;-92
2021/09/28 04:32:08;;;;;;;10.80;7.17;;;6.20;99.90;;;;;;4878718;29;20226;-92
2021/09/28 04:34:34;;;;;;;12.73;7.50;;;6.20;99.90;;;;;;4863219;29;20242;-92
2021/09/28 04:37:00;;;;;;;12.57;8.80;;;6.20;99.90;;;;;;4863376;29;20190;-94
2021/09/28 04:39:26;;;;;;;14.03;10.17;;;6.20;99.90;;;;;;4863993;29;20209;-96
2021/09/28 04:41:52;;;;;;;18.87;12.57;;;6.10;99.90;;;;;;4853314;29;20675;-93
2021/09/28 04:44:17;;;;;;;21.53;13.90;;;6.20;99.90;;;;;;4864915;29;20202;-94
2021/09/28 04:46:46;;;;;;;23.53;15.17;;;6.00;99.90;;;;;;4853046;29;20192;-93
2021/09/28 04:49:12;;;;;;;21.30;14.70;;;6.20;99.90;;;;;;4856157;29;20326;-95
2021/09/28 04:51:37;;;;;;;23.10;15.20;;;6.20;99.90;;;;;;4874782;29;20372;-95
2021/09/28 04:54:04;;;;;;;24.93;16.17;;;;;;;;;;4841818;29;20258;-94
2021/09/28 04:56:30;;;;;;;24.67;14.87;;;;;;;;;;4998766;24;20250;-94
2021/09/28 04:58:56;;;;;;;25.47;15.83;;;;;;;;;;4882093;29;20700;-95
2021/09/28 05:01:38;;;;;;;21.37;15.37;;;6.40;99.90;;;;;;5437562;24;20250;-93
2021/09/28 05:04:20;;;;;;;21.20;15.50;;;6.40;99.90;;;;;;5037030;24;20234;-94
2021/09/28 05:09:22;;;;;;;25.57;16.73;;;;;;;;;;5254014;24;20245;-94
2021/09/28 05:11:59;;;;;;;20.83;15.37;;;;;;;;;;4871059;29;20247;-91
2021/09/28 05:17:01;;;;;;;25.73;14.70;;;;;;;;;;4901560;23;20249;-91
2021/09/28 05:19:27;;;;;;;22.93;13.57;;;;;;;;;;4898415;29;20227;-94
2021/09/28 05:21:53;;;;;;;22.87;13.10;;;;;;;;;;4891745;29;20185;-93
2021/09/28 05:24:19;;;;;;;21.77;10.80;;;;;;;;;;4893190;29;20280;-94
2021/09/28 05:26:46;;;;;;;16.37;8.63;;;;;;;;;;4873107;29;20200;-93
2021/09/28 05:29:12;;;;;;;12.10;6.70;;;;;;;;;;4889689;29;20182;-92
2021/09/28 05:31:38;;;;;;;11.80;6.97;;;;;;;;;;4863958;29;20780;-92
2021/09/28 05:34:04;;;;;;;9.97;6.80;;;;;;;;;;4872886;29;20548;-92
2021/09/28 05:36:30;;;;;;;9.70;5.90;;;7.20;99.90;;;;;;4872896;29;20194;-92
2021/09/28 05:38:55;;;;;;;10.03;6.43;;;7.20;99.90;;;;;;4869919;29;20189;-90
2021/09/28 05:41:21;;;;;;;15.23;6.63;;;7.30;99.90;;;;;;4869784;29;20193;-91
2021/09/28 05:43:47;;;;;;;9.77;6.37;;;7.40;99.90;;;;;;4884478;29;20194;-86
2021/09/28 05:46:13;;;;;;;7.73;5.93;;;7.40;99.90;;;;;;4889693;29;20742;-90
2021/09/28 05:48:39;;;;;;;14.50;5.87;;;7.50;99.90;;;;;;4866141;29;20253;-94
2021/09/28 05:51:17;;;;;;;7.93;5.70;;;7.50;99.90;;;;;;4871707;29;20550;-91
2021/09/28 05:53:44;;;;;;;10.30;6.10;;;7.60;99.90;;;;;;4891818;29;20635;-87
2021/09/28 05:56:12;;;;;;;13.60;7.30;;;7.70;99.90;;;;;;4869961;29;20186;-91
2021/09/28 05:58:38;;;;;;;7.00;5.83;;;;;;;;;;4889873;29;20270;-87
2021/09/28 06:01:03;;;;;;;11.17;6.20;;;7.90;99.90;;;;;;4864197;29;20644;-87
2021/09/28 06:03:29;;;;;;;14.23;5.43;;;;;;;;;;4895528;29;20261;-89
2021/09/28 06:05:55;;;;;;;11.67;5.73;;;;;;;;;;4864073;29;20237;-89
2021/09/28 06:08:21;;;;;;;8.63;5.03;;;7.90;99.90;;;;;;4882404;29;20244;-89
2021/09/28 06:10:47;;;;;;;10.03;5.87;;;7.90;99.90;;;;;;4878818;29;20551;-88
2021/09/28 06:13:13;;;;;;;10.87;5.87;;;8.00;99.90;;;;;;4897433;29;20209;-86
2021/09/28 06:15:39;;;;;;;7.23;5.27;;;8.10;99.90;;;;;;4873973;29;20221;-86
2021/09/28 06:18:05;;;;;;;6.83;5.40;;;8.60;99.90;;;;;;4867175;29;20294;-86
2021/09/28 06:20:30;;;;;;;8.17;5.10;;;8.20;99.90;;;;;;4898988;29;20241;-92
2021/09/28 06:22:56;;;;;;;8.00;6.00;;;8.30;99.90;;;;;;4835741;29;20194;-90
2021/09/28 06:25:22;;;;;;;9.30;5.50;;;;;;;;;;4884640;29;20674;-90
2021/09/28 06:27:48;;;;;;;8.50;5.53;;;8.40;99.90;;;;;;4877186;29;20561;-92
2021/09/28 06:30:14;;;;;;;12.83;4.93;;;8.50;99.90;;;;;;4870978;29;20200;-90
2021/09/28 06:32:40;;;;;;;11.87;5.63;;;;;;;;;;4851057;29;20636;-91
2021/09/28 06:35:06;;;;;;;14.97;6.50;;;8.70;99.90;;;;;;4855986;29;20220;-92
2021/09/28 06:37:31;;;;;;;17.17;5.53;;;8.80;99.90;;;;;;4886840;29;20246;-92
2021/09/28 06:39:57;;;;;;;14.20;5.23;;;8.90;99.90;;;;;;4878419;29;20681;-92
2021/09/28 06:42:23;;;;;;;6.43;4.47;;;9.00;99.90;;;;;;4858246;29;20196;-92
2021/09/28 06:44:48;;;;;;;6.10;4.00;;;9.10;99.90;;;;;;4869845;29;20281;-91
2021/09/28 06:47:15;;;;;;;7.90;4.50;;;9.20;99.90;;;;;;4851958;29;20194;-92
2021/09/28 06:49:41;;;;;;;6.97;4.63;;;;;;;;;;4870076;29;20182;-95
2021/09/28 06:52:07;;;;;;;5.47;4.00;;;9.50;99.90;;;;;;4868601;29;20226;-92
2021/09/28 06:54:33;;;;;;;5.23;3.70;;;;;;;;;;4883439;29;20213;-90
2021/09/28 06:56:59;;;;;;;6.03;3.87;;;9.50;99.90;;;;;;4866772;29;20236;-93
2021/09/28 06:59:25;;;;;;;6.23;3.90;;;;;;;;;;4870530;29;20327;-90
2021/09/28 07:01:51;;;;;;;5.83;3.63;;;9.60;99.90;;;;;;4883599;29;20229;-91
2021/09/28 07:04:16;;;;;;;6.40;3.87;;;9.70;99.90;;;;;;4851522;29;20217;-92
2021/09/28 07:06:42;;;;;;;6.47;3.93;;;9.70;99.90;;;;;;4866920;29;20220;-92
2021/09/28 07:09:07;;;;;;;9.47;4.17;;;9.90;99.90;;;;;;4851300;29;20197;-90
2021/09/28 07:11:33;;;;;;;6.27;4.40;;;;;;;;;;4868245;29;20194;-93
2021/09/28 07:13:59;;;;;;;8.17;4.63;;;10.00;99.90;;;;;;4883888;29;20182;-91
2021/09/28 07:16:25;;;;;;;6.63;4.70;;;;;;;;;;4866290;29;20316;-93
2021/09/28 07:18:51;;;;;;;6.07;4.27;;;10.20;99.90;;;;;;4875426;29;20178;-90
2021/09/28 07:21:17;;;;;;;6.37;3.53;;;10.30;99.90;;;;;;4858873;29;20201;-90
2021/09/28 07:23:42;;;;;;;5.37;3.60;;;10.40;99.90;;;;;;4866924;29;20197;-91
2021/09/28 07:26:08;;;;;;;4.43;3.60;;;10.50;99.90;;;;;;4865807;29;20218;-90
2021/09/28 07:28:35;;;;;;;5.33;3.90;;;10.60;99.90;;;;;;4866308;29;20277;-90
2021/09/28 07:31:01;;;;;;;6.20;3.93;;;10.80;99.90;;;;;;4899536;29;20177;-87
2021/09/28 07:33:27;;;;;;;7.37;3.50;;;10.80;99.90;;;;;;4865938;29;20190;-89
2021/09/28 07:35:53;;;;;;;4.83;3.10;;;11.00;99.90;;;;;;4881084;29;20194;-90
2021/09/28 07:38:19;;;;;;;6.72;3.53;;;;;;;;;;4882155;29;20186;-91
2021/09/28 07:40:49;;;;;;;6.68;3.40;;;11.10;99.90;;;;;;4865700;29;20197;-92
2021/09/28 07:43:15;;;;;;;4.47;3.00;;;11.20;99.90;;;;;;4866237;29;20182;-93
2021/09/28 07:45:41;;;;;;;7.10;3.53;;;11.40;99.90;;;;;;4877819;29;20210;-91
2021/09/28 07:48:08;;;;;;;4.28;3.03;;;;;;;;;;4896543;29;20616;-91
2021/09/28 07:50:34;;;;;;;7.47;3.30;;;11.80;99.90;;;;;;4850852;29;20221;-90
2021/09/28 07:53:01;;;;;;;23.85;3.13;;;;;;;;;;4888498;29;20610;-91
2021/09/28 07:55:27;;;;;;;7.90;2.88;;;12.20;99.90;;;;;;4868754;29;20205;-94
2021/09/28 07:57:53;;;;;;;4.53;2.65;;;;;;;;;;4867152;29;20281;-92
2021/09/28 08:00:19;;;;;;;7.47;3.22;;;11.40;99.90;;;;;;4867059;29;20204;-91
2021/09/28 08:02:45;;;;;;;6.28;2.85;;;11.90;99.90;;;;;;4890964;29;20181;-91
2021/09/28 08:05:11;;;;;;;3.83;3.00;;;11.90;99.90;;;;;;4899837;29;20209;-90
2021/09/28 08:07:40;;;;;;;4.38;2.75;;;12.40;99.90;;;;;;4886129;29;20272;-89
2021/09/28 08:10:08;;;;;;;5.07;2.70;;;12.20;99.90;;;;;;4883640;29;20186;-90
2021/09/28 08:12:34;;;;;;;3.67;2.58;;;12.20;99.90;;;;;;4851997;29;20233;-91
2021/09/28 08:14:59;;;;;;;3.85;2.60;;;12.30;99.90;;;;;;4865428;29;20656;-90
2021/09/28 08:17:25;;;;;;;9.25;2.50;;;12.30;99.90;;;;;;4849724;29;20197;-92
2021/09/28 08:19:52;;;;;;;2.65;2.20;;;12.40;99.90;;;;;;4850237;29;20190;-93
2021/09/28 08:22:19;;;;;;;3.00;2.33;;;12.60;99.90;;;;;;4850145;29;20651;-90
2021/09/28 08:24:45;;;;;;;5.05;2.35;;;12.70;99.90;;;;;;4864706;29;20543;-90
2021/09/28 08:29:59;;;;;;;3.17;2.75;;;12.80;99.90;;;;;;4881700;29;20181;-89
2021/09/28 08:32:25;;;;;;;4.57;2.30;;;12.80;99.90;;;;;;4865891;29;20230;-91
2021/09/28 08:34:51;;;;;;;4.18;2.85;;;12.90;99.90;;;;;;4852348;29;20197;-92
2021/09/28 08:37:17;;;;;;;3.55;2.45;;;13.00;99.90;;;;;;4869884;29;20194;-90
2021/09/28 08:39:44;;;;;;;1.95;1.80;;;13.00;99.90;;;;;;4851297;29;20567;-92
2021/09/28 08:42:10;;;;;;;3.75;2.67;;;12.70;99.90;;;;;;4863379;29;20281;-90
2021/09/28 08:44:36;;;;;;;8.75;2.50;;;13.00;99.90;;;;;;4896966;29;20193;-91
2021/09/28 08:47:01;;;;;;;7.47;2.60;;;13.10;99.90;;;;;;4883332;29;20193;-91
2021/09/28 08:49:28;;;;;;;2.47;2.20;;;;;;;;;;4876842;29;20193;-91
2021/09/28 08:51:53;;;;;;;3.65;2.75;;;13.30;99.90;;;;;;4889239;29;20181;-91
2021/09/28 08:54:20;;;;;;;4.22;3.08;;;13.50;99.90;;;;;;4878726;29;20185;-94
2021/09/28 08:56:47;;;;;;;4.78;2.50;;;13.90;99.90;;;;;;4844717;29;20657;-92
2021/09/28 08:59:18;;;;;;;4.45;2.20;;;14.30;99.90;;;;;;4870746;29;20185;-92
2021/09/28 09:01:56;;;;;;;3.00;2.13;;;13.50;99.90;;;;;;4865221;29;20279;-91
2021/09/28 09:04:25;;;;;;;4.57;2.47;;;14.00;99.90;;;;;;4896262;29;20660;-93
2021/09/28 09:06:51;;;;;;;2.65;2.30;;;13.00;99.90;;;;;;4861678;29;20306;-93
2021/09/28 09:09:17;;;;;;;5.28;2.63;;;14.10;99.90;;;;;;4883889;29;20649;-93
2021/09/28 09:11:45;;;;;;;4.85;2.35;;;14.20;99.90;;;;;;4898368;29;20181;-92
2021/09/28 09:14:23;;;;;;;2.33;2.08;;;14.10;99.90;;;;;;4901449;29;20177;-92
2021/09/28 09:16:51;;;;;;;6.30;2.58;;;14.10;99.90;;;;;;4899982;29;20675;-93
2021/09/28 09:19:22;;;;;;;2.42;2.22;;;14.10;99.90;;;;;;4882956;29;20210;-92
2021/09/28 09:21:54;;;;;;;4.00;2.47;;;14.20;99.90;;;;;;4880229;29;20333;-94
2021/09/28 09:24:40;;;;;;;3.28;2.53;;;14.50;99.90;;;;;;4861996;29;20197;-92
2021/09/28 09:27:06;;;;;;;3.58;2.40;;;14.70;99.90;;;;;;4863098;29;20198;-93
2021/09/28 09:29:31;;;;;;;3.78;2.33;;;14.50;99.90;;;;;;4886049;29;20182;-93
2021/09/28 09:31:57;;;;;;;3.40;2.60;;;;;;;;;;4866983;29;20193;-92
2021/09/28 09:34:25;;;;;;;4.72;2.03;;;14.70;99.90;;;;;;4880146;29;20198;-91
2021/09/28 09:36:53;;;;;;;4.75;2.30;;;14.80;99.90;;;;;;4897179;29;20249;-90
2021/09/28 09:39:20;;;;;;;4.53;2.92;;;14.80;99.90;;;;;;4889592;29;20174;-92
2021/09/28 09:41:47;;;;;;;3.65;2.83;;;14.90;99.90;;;;;;4897664;29;20186;-91
2021/09/28 09:44:16;;;;;;;3.15;2.70;;;15.00;99.90;;;;;;4882472;29;20170;-91
2021/09/28 09:46:47;;;;;;;4.32;2.67;;;15.10;99.90;;;;;;4877438;29;20230;-91
2021/09/28 09:49:15;;;;;;;7.78;3.00;;;15.00;99.90;;;;;;4889264;29;20196;-90
2021/09/28 09:51:50;;;;;;;3.40;3.10;;;14.70;99.90;;;;;;4870757;29;20190;-89
2021/09/28 09:54:16;;;;;;;3.65;2.55;;;14.60;99.90;;;;;;4888242;29;20185;-89
2021/09/28 09:56:47;;;;;;;3.58;2.40;;;14.60;99.90;;;;;;4870513;29;20193;-90
2021/09/28 09:59:16;;;;;;;8.98;4.18;;;14.80;99.90;;;;;;4872561;29;20204;-90
2021/09/28 10:01:43;;;;;;;10.52;4.07;;;15.00;99.90;;;;;;4886431;29;20238;-90
2021/09/28 10:04:10;;;;;;;4.32;2.50;;;15.00;99.90;;;;;;4867902;29;20209;-90
2021/09/28 10:06:36;;;;;;;3.35;3.00;;;14.80;99.90;;;;;;4882630;29;20266;-89
2021/09/28 10:09:06;;;;;;;10.27;7.45;;;14.70;99.90;;;;;;4884991;29;20202;-90
2021/09/28 10:11:36;;;;;;;7.40;3.03;;;14.60;99.90;;;;;;4882310;29;20308;-89
2021/09/28 10:14:03;;;;;;;8.13;3.78;;;14.60;99.90;;;;;;4869541;29;20215;-92
2021/09/28 10:16:30;;;;;;;3.92;2.90;;;14.30;99.90;;;;;;4862695;29;20247;-91
2021/09/28 10:18:55;;;;;;;5.38;2.92;;;14.90;99.90;;;;;;4857695;29;20276;-89
2021/09/28 10:21:34;;;;;;;3.88;2.85;;;15.10;99.90;;;;;;4868063;29;20658;-90
2021/09/28 10:24:18;;;;;;;3.63;2.72;;;15.20;99.90;;;;;;4900221;29;20655;-90
2021/09/28 10:26:45;;;;;;;4.68;2.70;;;15.40;99.90;;;;;;4883858;29;20274;-89
2021/09/28 10:29:37;;;;;;;2.42;2.22;;;15.50;99.90;;;;;;4868860;29;20186;-90
2021/09/28 10:32:22;;;;;;;6.63;2.20;;;15.70;99.90;;;;;;4862324;29;20197;-91
2021/09/28 10:37:47;;;;;;;2.45;2.25;;;15.60;99.90;;;;;;4896654;29;20188;-89
2021/09/28 10:40:13;;;;;;;3.67;2.63;;;15.50;99.90;;;;;;4896382;29;20185;-90
2021/09/28 10:43:03;;;;;;;4.88;3.00;;;15.40;99.90;;;;;;4862813;29;20189;-89
2021/09/28 10:45:28;;;;;;;5.38;3.10;;;15.40;99.90;;;;;;4879611;29;20682;-88
2021/09/28 10:47:57;;;;;;;6.18;3.20;;;15.30;99.90;;;;;;4862901;29;20190;-89
2021/09/28 10:50:22;;;;;;;4.28;3.13;;;15.30;99.90;;;;;;4879508;29;20197;-89
2021/09/28 10:52:49;;;;;;;11.68;3.90;;;15.10;99.90;;;;;;4862298;29;20182;-89
2021/09/28 10:55:15;;;;;;;5.82;3.00;;;14.90;99.90;;;;;;4891791;29;20201;-87
2021/09/28 10:58:15;;;;;;;6.07;3.22;;;14.70;99.90;;;;;;4900631;29;20524;-91
2021/09/28 11:00:40;;;;;;;3.35;2.92;;;14.50;99.90;;;;;;4895232;29;20265;-90
2021/09/28 11:03:08;;;;;;;6.78;3.30;;;14.50;99.90;;;;;;4901298;29;20264;-92
2021/09/28 11:05:42;;;;;;;3.15;2.75;;;14.40;99.90;;;;;;4900494;29;20304;-89
2021/09/28 11:08:10;;;;;;;4.07;3.00;;;14.50;99.90;;;;;;4900842;29;20249;-91
2021/09/28 11:10:37;;;;;;;4.43;3.10;;;14.40;99.90;;;;;;4883810;29;20224;-91
2021/09/28 11:13:10;;;;;;;3.58;2.88;;;14.40;99.90;;;;;;4884394;29;20760;-91
2021/09/28 11:15:36;;;;;;;3.97;2.70;;;14.40;99.90;;;;;;4900526;29;20315;-89
2021/09/28 11:18:13;;;;;;;7.20;2.83;;;14.50;99.90;;;;;;4884096;29;20216;-91
2021/09/28 11:20:40;;;;;;;6.05;3.00;;;14.40;99.90;;;;;;4900814;29;20185;-90
2021/09/28 11:23:11;;;;;;;5.00;3.10;;;14.50;99.90;;;;;;4883987;29;20177;-90
2021/09/28 11:25:40;;;;;;;10.23;4.95;;;14.40;99.90;;;;;;4889535;29;20202;-91
2021/09/28 11:28:07;;;;;;;5.35;3.75;;;14.40;99.90;;;;;;4875553;29;20189;-89
2021/09/28 11:30:35;;;;;;;2.90;2.55;;;14.40;99.90;;;;;;4877418;29;20193;-90
2021/09/28 11:33:05;;;;;;;3.10;2.75;;;14.40;99.90;;;;;;4880274;29;20187;-90
2021/09/28 11:35:32;;;;;;;4.25;2.90;;;14.40;99.90;;;;;;4863958;29;20280;-91
2021/09/28 11:38:00;;;;;;;4.35;3.13;;;14.40;99.90;;;;;;4884247;29;20193;-90
2021/09/28 11:40:39;;;;;;;6.85;3.60;;;14.40;99.90;;;;;;4885160;29;20212;-89
2021/09/28 11:43:21;;;;;;;18.50;8.13;;;14.10;99.90;;;;;;4890768;29;20154;-90
2021/09/28 11:45:57;;;;;;;16.60;7.47;;;14.40;99.90;;;;;;4919769;29;20300;-88
2021/09/28 11:48:23;;;;;;;10.75;6.25;;;14.30;99.90;;;;;;4908097;29;20181;-92
2021/09/28 11:50:49;;;;;;;5.50;3.25;;;14.30;99.90;;;;;;4867807;29;20532;-89
2021/09/28 11:53:15;;;;;;;4.95;3.90;;;14.30;99.90;;;;;;4868039;29;20620;-88
2021/09/28 11:55:41;;;;;;;5.35;3.83;;;14.30;99.90;;;;;;4900033;29;20220;-89
2021/09/28 11:58:07;;;;;;;4.45;2.88;;;14.40;99.90;;;;;;4883353;29;20221;-92
2021/09/28 12:00:34;;;;;;;4.72;2.70;;;14.50;99.90;;;;;;4882818;29;20181;-88
2021/09/28 12:03:09;;;;;;;4.15;2.30;;;14.50;99.90;;;;;;4883052;29;20181;-89
2021/09/28 12:08:24;;;;;;;3.83;2.45;;;14.70;99.90;;;;;;4889615;29;20245;-88
2021/09/28 12:10:51;;;;;;;5.20;2.75;;;14.90;99.90;;;;;;4887562;29;20261;-90
2021/09/28 12:13:27;;;;;;;3.63;2.67;;;15.00;99.90;;;;;;4881355;29;20258;-88
2021/09/28 12:16:02;;;;;;;4.00;2.90;;;15.00;99.90;;;;;;4864695;29;20722;-87
2021/09/28 12:18:27;;;;;;;6.70;2.30;;;14.90;99.90;;;;;;4849726;29;20190;-90
2021/09/28 12:21:25;;;;;;;4.10;3.00;;;14.90;99.90;;;;;;4866973;29;20233;-89
2021/09/28 12:24:15;;;;;;;3.10;2.58;;;14.90;99.90;;;;;;4881376;29;20326;-89
2021/09/28 12:26:41;;;;;;;5.90;2.78;;;14.90;99.90;;;;;;4880908;29;20217;-89
2021/09/28 12:29:16;;;;;;;3.90;2.90;;;14.90;99.90;;;;;;4895055;29;20546;-90
2021/09/28 12:31:41;;;;;;;5.20;2.28;;;14.80;99.90;;;;;;4878354;29;20203;-90
2021/09/28 12:34:07;;;;;;;8.02;2.20;;;14.90;99.90;;;;;;4877012;29;20654;-91
2021/09/28 12:36:33;;;;;;;3.47;2.25;;;14.90;99.90;;;;;;4892820;29;20723;-89
2021/09/28 12:39:25;;;;;;;3.58;2.10;;;15.00;99.90;;;;;;4869831;29;20196;-89
2021/09/28 12:42:09;;;;;;;3.10;2.05;;;15.20;99.90;;;;;;4882461;29;20185;-88
2021/09/28 12:44:37;;;;;;;3.42;1.77;;;15.40;99.90;;;;;;4863783;29;20178;-89
2021/09/28 12:47:23;;;;;;;4.05;2.22;;;15.30;99.90;;;;;;4894622;29;20197;-89
2021/09/28 12:49:48;;;;;;;5.93;2.10;;;15.20;99.90;;;;;;4871699;29;20186;-89
2021/09/28 12:52:14;;;;;;;4.57;2.28;;;15.10;99.90;;;;;;4876638;29;20209;-90
2021/09/28 12:54:40;;;;;;;3.22;2.10;;;15.10;99.90;;;;;;4847920;29;20609;-90
2021/09/28 12:57:05;;;;;;;3.30;2.50;;;15.20;99.90;;;;;;4851615;29;20679;-89
2021/09/28 12:59:31;;;;;;;3.28;2.72;;;15.20;99.90;;;;;;4847541;29;20280;-90
2021/09/28 13:01:57;;;;;;;7.28;2.60;;;15.20;99.90;;;;;;4863358;29;20202;-90
2021/09/28 13:04:22;;;;;;;2.58;1.80;;;15.20;99.90;;;;;;4866938;29;20522;-89
2021/09/28 13:06:54;;;;;;;6.25;2.10;;;15.30;99.90;;;;;;4867014;29;20659;-89
2021/09/28 13:09:20;;;;;;;4.07;2.50;;;15.70;99.90;;;;;;4867629;29;20193;-91
2021/09/28 13:11:45;;;;;;;4.85;1.88;;;15.80;99.90;;;;;;4867013;29;20196;-90
2021/09/28 13:14:11;;;;;;;1.70;1.60;;;15.60;99.90;;;;;;4899079;29;20188;-91